AAL2721 KPHX-KSAN
Flight info
| Callsign | AAL2721 |
|---|---|
| Flight time | 0h 54m |
| Altitude | 36000 |
| Route | FYRBD1 MOHAK J2 HOGGZ LUCKI1 |
| Aircraft | A320/M-SDE3FGHIRWY/LB1 |
Departure
| Time | 2026-05-04 01:54 |
|---|---|
| Airport | Phoenix Sky Harbor International Airport (KPHX) |
Arrival
| Time | 2026-05-04 02:49 |
|---|---|
| Airport | San Diego International Airport (KSAN) |
| Time | Latitude | Longitude | Altitude | Speed | Heading |
|---|---|---|---|---|---|
| 2026-05-04 01:15 | 33.43687 | -112.00118 | 1116 ft | 0 kts | 270° |
| 2026-05-04 01:42 | 33.43686 | -112.00093 | 1116 ft | 4 kts | 284° |
| 2026-05-04 01:42 | 33.43676 | -112.00075 | 1115 ft | 3 kts | 359° |
| 2026-05-04 01:42 | 33.43687 | -112.00075 | 1118 ft | 4 kts | 360° |
| 2026-05-04 01:42 | 33.43697 | -112.00075 | 1118 ft | 0 kts | 360° |
| 2026-05-04 01:45 | 33.43718 | -112.00075 | 1119 ft | 5 kts | 360° |
| 2026-05-04 01:46 | 33.43765 | -112.00075 | 1120 ft | 8 kts | 360° |
| 2026-05-04 01:46 | 33.43828 | -112.00075 | 1122 ft | 10 kts | 360° |
| 2026-05-04 01:46 | 33.43833 | -112.00075 | 1122 ft | 0 kts | 360° |
| 2026-05-04 01:47 | 33.43851 | -112.00075 | 1121 ft | 7 kts | 360° |
| 2026-05-04 01:47 | 33.43900 | -112.00048 | 1122 ft | 9 kts | 65° |
| 2026-05-04 01:47 | 33.43905 | -111.99961 | 1125 ft | 13 kts | 90° |
| 2026-05-04 01:47 | 33.43905 | -111.99842 | 1126 ft | 15 kts | 90° |
| 2026-05-04 01:48 | 33.43905 | -111.99705 | 1126 ft | 17 kts | 90° |
| 2026-05-04 01:48 | 33.43905 | -111.99562 | 1126 ft | 16 kts | 90° |
| 2026-05-04 01:48 | 33.43906 | -111.99425 | 1126 ft | 16 kts | 90° |
| 2026-05-04 01:48 | 33.43906 | -111.99302 | 1126 ft | 12 kts | 90° |
| 2026-05-04 01:49 | 33.43862 | -111.99224 | 1114 ft | 14 kts | 172° |
| 2026-05-04 01:49 | 33.43773 | -111.99226 | 1119 ft | 14 kts | 181° |
| 2026-05-04 01:49 | 33.43684 | -111.99228 | 1119 ft | 13 kts | 181° |
| 2026-05-04 01:49 | 33.43585 | -111.99229 | 1121 ft | 15 kts | 180° |
| 2026-05-04 01:50 | 33.43505 | -111.99229 | 1114 ft | 10 kts | 180° |
| 2026-05-04 01:50 | 33.43437 | -111.99237 | 1121 ft | 10 kts | 198° |
| 2026-05-04 01:50 | 33.43362 | -111.99248 | 1120 ft | 12 kts | 179° |
| 2026-05-04 01:50 | 33.43276 | -111.99246 | 1125 ft | 12 kts | 179° |
| 2026-05-04 01:51 | 33.43206 | -111.99262 | 1124 ft | 9 kts | 221° |
| 2026-05-04 01:51 | 33.43201 | -111.99268 | 1122 ft | 0 kts | 227° |
| 2026-05-04 01:52 | 33.43200 | -111.99269 | 1122 ft | 1 kts | 227° |
| 2026-05-04 01:52 | 33.43188 | -111.99285 | 1123 ft | 4 kts | 227° |
| 2026-05-04 01:52 | 33.43159 | -111.99320 | 1134 ft | 8 kts | 223° |
| 2026-05-04 01:52 | 33.43107 | -111.99374 | 1134 ft | 11 kts | 237° |
| 2026-05-04 01:53 | 33.43102 | -111.99414 | 1132 ft | 0 kts | 269° |
| 2026-05-04 01:53 | 33.43102 | -111.99415 | 1132 ft | 1 kts | 269° |
| 2026-05-04 01:53 | 33.43103 | -111.99511 | 1132 ft | 40 kts | 270° |
| 2026-05-04 01:53 | 33.43106 | -112.00116 | 1132 ft | 102 kts | 270° |
| 2026-05-04 01:54 | 33.43108 | -112.01536 | 1387 ft | 138 kts | 271° |
| 2026-05-04 01:54 | 33.43145 | -112.02658 | 2081 ft | 133 kts | 266° |
| 2026-05-04 01:54 | 33.43137 | -112.03406 | 2473 ft | 132 kts | 259° |
| 2026-05-04 01:54 | 33.43059 | -112.04519 | 2988 ft | 135 kts | 256° |
| 2026-05-04 01:55 | 33.42954 | -112.05724 | 3092 ft | 157 kts | 258° |
| 2026-05-04 01:55 | 33.42816 | -112.07101 | 3281 ft | 180 kts | 258° |
| 2026-05-04 01:55 | 33.42625 | -112.08710 | 3488 ft | 205 kts | 257° |
| 2026-05-04 01:55 | 33.42368 | -112.10491 | 3828 ft | 229 kts | 255° |
| 2026-05-04 01:56 | 33.41999 | -112.12444 | 4260 ft | 250 kts | 253° |
| 2026-05-04 01:56 | 33.41555 | -112.14483 | 5049 ft | 255 kts | 250° |
| 2026-05-04 01:56 | 33.40829 | -112.16410 | 5934 ft | 256 kts | 231° |
| 2026-05-04 01:56 | 33.39413 | -112.17635 | 6705 ft | 260 kts | 201° |
| 2026-05-04 01:57 | 33.37609 | -112.18070 | 7551 ft | 265 kts | 183° |
| 2026-05-04 01:57 | 33.35791 | -112.17813 | 8395 ft | 270 kts | 167° |
| 2026-05-04 01:57 | 33.33978 | -112.17199 | 9294 ft | 271 kts | 166° |
| 2026-05-04 01:57 | 33.32749 | -112.16778 | 9904 ft | 272 kts | 165° |
| 2026-05-04 01:58 | 33.30302 | -112.15932 | 10726 ft | 286 kts | 166° |
| 2026-05-04 01:58 | 33.28299 | -112.15350 | 10975 ft | 305 kts | 178° |
| 2026-05-04 01:58 | 33.26197 | -112.15777 | 11476 ft | 313 kts | 205° |
| 2026-05-04 01:58 | 33.24509 | -112.17425 | 12138 ft | 320 kts | 233° |
| 2026-05-04 01:59 | 33.23681 | -112.19911 | 12879 ft | 328 kts | 257° |
| 2026-05-04 01:59 | 33.23301 | -112.22603 | 13565 ft | 329 kts | 255° |
| 2026-05-04 01:59 | 33.22623 | -112.25201 | 14200 ft | 328 kts | 243° |
| 2026-05-04 01:59 | 33.21440 | -112.27518 | 14910 ft | 328 kts | 235° |
| 2026-05-04 02:00 | 33.20107 | -112.29741 | 15627 ft | 329 kts | 233° |
| 2026-05-04 02:00 | 33.18718 | -112.31912 | 16316 ft | 330 kts | 232° |
| 2026-05-04 02:00 | 33.17296 | -112.34073 | 16999 ft | 332 kts | 232° |
| 2026-05-04 02:00 | 33.15862 | -112.36243 | 17679 ft | 334 kts | 233° |
| 2026-05-04 02:01 | 33.14433 | -112.38412 | 18325 ft | 336 kts | 233° |
| 2026-05-04 02:01 | 33.12993 | -112.40616 | 18913 ft | 338 kts | 234° |
| 2026-05-04 02:01 | 33.11547 | -112.42847 | 19504 ft | 341 kts | 234° |
| 2026-05-04 02:01 | 33.10095 | -112.45096 | 20115 ft | 343 kts | 235° |
| 2026-05-04 02:02 | 33.08639 | -112.47354 | 20725 ft | 345 kts | 235° |
| 2026-05-04 02:02 | 33.07165 | -112.49635 | 21287 ft | 348 kts | 235° |
| 2026-05-04 02:02 | 33.05684 | -112.51925 | 21853 ft | 350 kts | 235° |
| 2026-05-04 02:02 | 33.04187 | -112.54239 | 22458 ft | 353 kts | 236° |
| 2026-05-04 02:03 | 33.02680 | -112.56566 | 23044 ft | 355 kts | 236° |
| 2026-05-04 02:03 | 33.01164 | -112.58899 | 23587 ft | 358 kts | 236° |
| 2026-05-04 02:03 | 32.99636 | -112.61251 | 24079 ft | 359 kts | 236° |
| 2026-05-04 02:03 | 32.98102 | -112.63612 | 24575 ft | 361 kts | 236° |
| 2026-05-04 02:04 | 32.96693 | -112.66076 | 25070 ft | 358 kts | 244° |
| 2026-05-04 02:04 | 32.95687 | -112.68732 | 25550 ft | 356 kts | 253° |
| 2026-05-04 02:04 | 32.95079 | -112.71584 | 26030 ft | 356 kts | 261° |
| 2026-05-04 02:04 | 32.94697 | -112.74501 | 26508 ft | 357 kts | 261° |
| 2026-05-04 02:05 | 32.94310 | -112.77418 | 26982 ft | 357 kts | 261° |
| 2026-05-04 02:05 | 32.93918 | -112.80342 | 27460 ft | 357 kts | 261° |
| 2026-05-04 02:05 | 32.93521 | -112.83265 | 27936 ft | 358 kts | 261° |
| 2026-05-04 02:05 | 32.93119 | -112.86197 | 28397 ft | 358 kts | 261° |
| 2026-05-04 02:06 | 32.92715 | -112.89138 | 28847 ft | 359 kts | 261° |
| 2026-05-04 02:06 | 32.92311 | -112.92087 | 29290 ft | 360 kts | 262° |
| 2026-05-04 02:06 | 32.91910 | -112.95037 | 29726 ft | 361 kts | 262° |
| 2026-05-04 02:06 | 32.91508 | -112.97995 | 30119 ft | 362 kts | 262° |
| 2026-05-04 02:07 | 32.91104 | -113.00965 | 30499 ft | 362 kts | 262° |
| 2026-05-04 02:07 | 32.90706 | -113.03884 | 30905 ft | 361 kts | 262° |
| 2026-05-04 02:07 | 32.90302 | -113.06840 | 31300 ft | 361 kts | 262° |
| 2026-05-04 02:07 | 32.89900 | -113.09777 | 31823 ft | 357 kts | 262° |
| 2026-05-04 02:08 | 32.89506 | -113.12671 | 32452 ft | 350 kts | 262° |
| 2026-05-04 02:08 | 32.89118 | -113.15506 | 33117 ft | 344 kts | 262° |
| 2026-05-04 02:08 | 32.88736 | -113.18285 | 33791 ft | 337 kts | 262° |
| 2026-05-04 02:08 | 32.88362 | -113.20988 | 34340 ft | 332 kts | 262° |
| 2026-05-04 02:09 | 32.87986 | -113.23694 | 34801 ft | 329 kts | 262° |
| 2026-05-04 02:09 | 32.87614 | -113.26371 | 35194 ft | 327 kts | 262° |
| 2026-05-04 02:09 | 32.87243 | -113.29036 | 35573 ft | 326 kts | 262° |
| 2026-05-04 02:09 | 32.86872 | -113.31697 | 35766 ft | 325 kts | 262° |
| 2026-05-04 02:10 | 32.86146 | -113.36917 | 35793 ft | 319 kts | 262° |
| 2026-05-04 02:10 | 32.85424 | -113.42130 | 35793 ft | 318 kts | 262° |
| 2026-05-04 02:11 | 32.84695 | -113.47332 | 35791 ft | 319 kts | 261° |
| 2026-05-04 02:11 | 32.83954 | -113.52541 | 35796 ft | 319 kts | 261° |
| 2026-05-04 02:12 | 32.83221 | -113.57730 | 35802 ft | 320 kts | 261° |
| 2026-05-04 02:12 | 32.82487 | -113.62947 | 35799 ft | 320 kts | 261° |
| 2026-05-04 02:13 | 32.81747 | -113.68167 | 35800 ft | 320 kts | 261° |
| 2026-05-04 02:13 | 32.81006 | -113.73392 | 35807 ft | 320 kts | 261° |
| 2026-05-04 02:14 | 32.80244 | -113.78739 | 35793 ft | 336 kts | 261° |
| 2026-05-04 02:14 | 32.79448 | -113.84275 | 35798 ft | 344 kts | 261° |
| 2026-05-04 02:15 | 32.78638 | -113.89903 | 35789 ft | 345 kts | 261° |
| 2026-05-04 02:15 | 32.77834 | -113.95492 | 35792 ft | 345 kts | 261° |
| 2026-05-04 02:16 | 32.77540 | -114.01175 | 35786 ft | 345 kts | 268° |
| 2026-05-04 02:16 | 32.77482 | -114.06900 | 35756 ft | 346 kts | 268° |
| 2026-05-04 02:17 | 32.77620 | -114.12605 | 35760 ft | 349 kts | 270° |
| 2026-05-04 02:17 | 32.77908 | -114.18380 | 35762 ft | 350 kts | 270° |
| 2026-05-04 02:18 | 32.78177 | -114.24172 | 35768 ft | 351 kts | 270° |
| 2026-05-04 02:18 | 32.78413 | -114.29979 | 35813 ft | 351 kts | 270° |
| 2026-05-04 02:19 | 32.78634 | -114.35763 | 35820 ft | 350 kts | 270° |
| 2026-05-04 02:19 | 32.79506 | -114.41433 | 35781 ft | 358 kts | 281° |
| 2026-05-04 02:20 | 32.81069 | -114.47067 | 35784 ft | 358 kts | 282° |
| 2026-05-04 02:20 | 32.82632 | -114.52705 | 35781 ft | 359 kts | 281° |
| 2026-05-04 02:21 | 32.84177 | -114.58330 | 35786 ft | 359 kts | 281° |
| 2026-05-04 02:21 | 32.85718 | -114.63981 | 35778 ft | 359 kts | 281° |
| 2026-05-04 02:22 | 32.87259 | -114.69638 | 35785 ft | 360 kts | 281° |
| 2026-05-04 02:22 | 32.88793 | -114.75311 | 35793 ft | 360 kts | 281° |
| 2026-05-04 02:23 | 32.89643 | -114.81037 | 35797 ft | 349 kts | 263° |
| 2026-05-04 02:23 | 32.88976 | -114.86725 | 35798 ft | 349 kts | 261° |
| 2026-05-04 02:24 | 32.88327 | -114.92456 | 35640 ft | 351 kts | 264° |
| 2026-05-04 02:24 | 32.88146 | -114.95375 | 34930 ft | 353 kts | 265° |
| 2026-05-04 02:24 | 32.88016 | -114.98264 | 34458 ft | 347 kts | 265° |
| 2026-05-04 02:25 | 32.87912 | -115.01118 | 33927 ft | 344 kts | 265° |
| 2026-05-04 02:25 | 32.87808 | -115.03987 | 32954 ft | 350 kts | 265° |
| 2026-05-04 02:25 | 32.87696 | -115.06882 | 32322 ft | 348 kts | 265° |
| 2026-05-04 02:25 | 32.87581 | -115.09734 | 31921 ft | 342 kts | 265° |
| 2026-05-04 02:26 | 32.87460 | -115.12568 | 31522 ft | 349 kts | 265° |
| 2026-05-04 02:26 | 32.87328 | -115.15526 | 31096 ft | 365 kts | 265° |
| 2026-05-04 02:26 | 32.87190 | -115.18574 | 30659 ft | 372 kts | 266° |
| 2026-05-04 02:26 | 32.87053 | -115.21668 | 30218 ft | 377 kts | 266° |
| 2026-05-04 02:27 | 32.86913 | -115.24801 | 29759 ft | 381 kts | 266° |
| 2026-05-04 02:27 | 32.86769 | -115.27957 | 29271 ft | 384 kts | 266° |
| 2026-05-04 02:27 | 32.86621 | -115.31144 | 28827 ft | 387 kts | 266° |
| 2026-05-04 02:27 | 32.86442 | -115.34351 | 28269 ft | 390 kts | 262° |
| 2026-05-04 02:28 | 32.86039 | -115.37544 | 27673 ft | 392 kts | 261° |
| 2026-05-04 02:28 | 32.85597 | -115.40757 | 27126 ft | 396 kts | 260° |
| 2026-05-04 02:28 | 32.85133 | -115.44002 | 26552 ft | 400 kts | 260° |
| 2026-05-04 02:28 | 32.84662 | -115.47246 | 26010 ft | 395 kts | 260° |
| 2026-05-04 02:29 | 32.84195 | -115.50411 | 25564 ft | 392 kts | 259° |
| 2026-05-04 02:29 | 32.83690 | -115.53600 | 25363 ft | 392 kts | 258° |
| 2026-05-04 02:29 | 32.83165 | -115.56779 | 25104 ft | 391 kts | 258° |
| 2026-05-04 02:29 | 32.82633 | -115.59958 | 24842 ft | 393 kts | 258° |
| 2026-05-04 02:30 | 32.82092 | -115.63183 | 24592 ft | 401 kts | 258° |
| 2026-05-04 02:30 | 32.81548 | -115.66438 | 24329 ft | 401 kts | 258° |
| 2026-05-04 02:30 | 32.81007 | -115.69695 | 24047 ft | 401 kts | 258° |
| 2026-05-04 02:30 | 32.80469 | -115.72948 | 23784 ft | 400 kts | 258° |
| 2026-05-04 02:31 | 32.79933 | -115.76194 | 23517 ft | 400 kts | 258° |
| 2026-05-04 02:31 | 32.79398 | -115.79442 | 23232 ft | 400 kts | 258° |
| 2026-05-04 02:31 | 32.78862 | -115.82690 | 22958 ft | 400 kts | 258° |
| 2026-05-04 02:31 | 32.78410 | -115.85947 | 22646 ft | 399 kts | 261° |
| 2026-05-04 02:32 | 32.78108 | -115.89218 | 21982 ft | 397 kts | 262° |
| 2026-05-04 02:32 | 32.77864 | -115.92473 | 21414 ft | 393 kts | 263° |
| 2026-05-04 02:32 | 32.77654 | -115.95646 | 21153 ft | 375 kts | 263° |
| 2026-05-04 02:32 | 32.77463 | -115.98656 | 20853 ft | 355 kts | 263° |
| 2026-05-04 02:33 | 32.77277 | -116.01482 | 20219 ft | 342 kts | 263° |
| 2026-05-04 02:33 | 32.77077 | -116.04302 | 19361 ft | 336 kts | 262° |
| 2026-05-04 02:33 | 32.76869 | -116.07043 | 18849 ft | 338 kts | 262° |
| 2026-05-04 02:33 | 32.76652 | -116.09816 | 18354 ft | 337 kts | 262° |
| 2026-05-04 02:34 | 32.76434 | -116.12588 | 17853 ft | 338 kts | 262° |
| 2026-05-04 02:34 | 32.76215 | -116.15376 | 17286 ft | 338 kts | 262° |
| 2026-05-04 02:34 | 32.75998 | -116.18150 | 16782 ft | 337 kts | 262° |
| 2026-05-04 02:34 | 32.75784 | -116.20915 | 16396 ft | 332 kts | 262° |
| 2026-05-04 02:35 | 32.75579 | -116.23597 | 16274 ft | 319 kts | 262° |
| 2026-05-04 02:35 | 32.75382 | -116.26170 | 15706 ft | 309 kts | 262° |
| 2026-05-04 02:35 | 32.75190 | -116.28695 | 14957 ft | 308 kts | 263° |
| 2026-05-04 02:35 | 32.74994 | -116.31240 | 14507 ft | 307 kts | 263° |
| 2026-05-04 02:36 | 32.74805 | -116.33711 | 14318 ft | 296 kts | 263° |
| 2026-05-04 02:36 | 32.74619 | -116.36146 | 13919 ft | 295 kts | 263° |
| 2026-05-04 02:36 | 32.74433 | -116.38570 | 13530 ft | 294 kts | 263° |
| 2026-05-04 02:36 | 32.74244 | -116.40981 | 13117 ft | 292 kts | 262° |
| 2026-05-04 02:37 | 32.74055 | -116.43363 | 12803 ft | 287 kts | 262° |
| 2026-05-04 02:37 | 32.73873 | -116.45680 | 12308 ft | 279 kts | 262° |
| 2026-05-04 02:37 | 32.73694 | -116.47966 | 11670 ft | 276 kts | 262° |
| 2026-05-04 02:37 | 32.73516 | -116.50219 | 11015 ft | 272 kts | 262° |
| 2026-05-04 02:38 | 32.73321 | -116.52442 | 10622 ft | 272 kts | 261° |
| 2026-05-04 02:38 | 32.73108 | -116.54667 | 10393 ft | 267 kts | 260° |
| 2026-05-04 02:38 | 32.72901 | -116.56784 | 10100 ft | 258 kts | 260° |
| 2026-05-04 02:38 | 32.72686 | -116.58924 | 9602 ft | 264 kts | 260° |
| 2026-05-04 02:39 | 32.72467 | -116.61101 | 9219 ft | 265 kts | 260° |
| 2026-05-04 02:39 | 32.72253 | -116.63270 | 8887 ft | 264 kts | 261° |
| 2026-05-04 02:39 | 32.72043 | -116.65432 | 8549 ft | 263 kts | 261° |
| 2026-05-04 02:39 | 32.71848 | -116.67583 | 8210 ft | 262 kts | 262° |
| 2026-05-04 02:40 | 32.71730 | -116.69039 | 7984 ft | 260 kts | 262° |
| 2026-05-04 02:40 | 32.71567 | -116.71172 | 7655 ft | 259 kts | 263° |
| 2026-05-04 02:40 | 32.71410 | -116.73269 | 7333 ft | 259 kts | 263° |
| 2026-05-04 02:40 | 32.71247 | -116.75395 | 7002 ft | 257 kts | 262° |
| 2026-05-04 02:41 | 32.71088 | -116.77457 | 6682 ft | 244 kts | 263° |
| 2026-05-04 02:41 | 32.70932 | -116.79471 | 6365 ft | 245 kts | 263° |
| 2026-05-04 02:41 | 32.70755 | -116.81489 | 6028 ft | 246 kts | 258° |
| 2026-05-04 02:41 | 32.70250 | -116.83405 | 5734 ft | 239 kts | 249° |
| 2026-05-04 02:42 | 32.69684 | -116.85203 | 5468 ft | 227 kts | 249° |
| 2026-05-04 02:42 | 32.69143 | -116.86930 | 5208 ft | 220 kts | 249° |
| 2026-05-04 02:42 | 32.68620 | -116.88610 | 4953 ft | 213 kts | 251° |
| 2026-05-04 02:42 | 32.68126 | -116.90255 | 4707 ft | 211 kts | 251° |
| 2026-05-04 02:43 | 32.67652 | -116.91870 | 4455 ft | 208 kts | 252° |
| 2026-05-04 02:43 | 32.67366 | -116.93523 | 4217 ft | 203 kts | 269° |
| 2026-05-04 02:43 | 32.67548 | -116.95163 | 3986 ft | 201 kts | 286° |
| 2026-05-04 02:43 | 32.67947 | -116.96739 | 3758 ft | 197 kts | 286° |
| 2026-05-04 02:44 | 32.68328 | -116.98283 | 3515 ft | 190 kts | 285° |
| 2026-05-04 02:44 | 32.68689 | -116.99758 | 3335 ft | 180 kts | 285° |
| 2026-05-04 02:44 | 32.69025 | -117.01139 | 3118 ft | 169 kts | 285° |
| 2026-05-04 02:44 | 32.69342 | -117.02449 | 2904 ft | 160 kts | 284° |
| 2026-05-04 02:45 | 32.69639 | -117.03672 | 2714 ft | 149 kts | 284° |
| 2026-05-04 02:45 | 32.69921 | -117.04826 | 2542 ft | 141 kts | 284° |
| 2026-05-04 02:45 | 32.70185 | -117.05905 | 2387 ft | 133 kts | 285° |
| 2026-05-04 02:45 | 32.70440 | -117.06951 | 2203 ft | 130 kts | 285° |
| 2026-05-04 02:46 | 32.70692 | -117.07981 | 2033 ft | 130 kts | 285° |
| 2026-05-04 02:46 | 32.70943 | -117.09011 | 1846 ft | 130 kts | 285° |
| 2026-05-04 02:46 | 32.71192 | -117.10037 | 1646 ft | 130 kts | 285° |
| 2026-05-04 02:46 | 32.71444 | -117.11073 | 1434 ft | 130 kts | 285° |
| 2026-05-04 02:47 | 32.71694 | -117.12105 | 1224 ft | 130 kts | 284° |
| 2026-05-04 02:47 | 32.71939 | -117.13119 | 1028 ft | 130 kts | 284° |
| 2026-05-04 02:47 | 32.72189 | -117.14155 | 818 ft | 130 kts | 283° |
| 2026-05-04 02:47 | 32.72439 | -117.15196 | 635 ft | 132 kts | 282° |
| 2026-05-04 02:48 | 32.72695 | -117.16244 | 430 ft | 133 kts | 283° |
| 2026-05-04 02:48 | 32.72951 | -117.17299 | 205 ft | 133 kts | 284° |
| 2026-05-04 02:48 | 32.73202 | -117.18346 | 32 ft | 127 kts | 284° |
| 2026-05-04 02:48 | 32.73395 | -117.19132 | 23 ft | 59 kts | 287° |
| 2026-05-04 02:49 | 32.73479 | -117.19476 | 25 ft | 42 kts | 285° |
| 2026-05-04 02:49 | 32.73561 | -117.19846 | 25 ft | 48 kts | 284° |
| 2026-05-04 02:49 | 32.73598 | -117.20174 | 23 ft | 24 kts | 250° |
| 2026-05-04 02:49 | 32.73570 | -117.20217 | 23 ft | 2 kts | 206° |
| 2026-05-04 02:50 | 32.73565 | -117.20218 | 24 ft | 0 kts | 198° |
| 2026-05-04 02:51 | 32.73564 | -117.20219 | 24 ft | 0 kts | 198° |
| 2026-05-04 02:51 | 32.73554 | -117.20220 | 23 ft | 3 kts | 180° |
| 2026-05-04 02:51 | 32.73537 | -117.20190 | 23 ft | 6 kts | 107° |
| 2026-05-04 02:52 | 32.73521 | -117.20141 | 23 ft | 7 kts | 121° |
| 2026-05-04 02:52 | 32.73496 | -117.20127 | 23 ft | 4 kts | 183° |
| 2026-05-04 02:52 | 32.73461 | -117.20133 | 23 ft | 4 kts | 186° |
| 2026-05-04 02:52 | 32.73432 | -117.20125 | 23 ft | 3 kts | 166° |
| 2026-05-04 02:53 | 32.73419 | -117.20121 | 23 ft | 0 kts | 166° |